sensor_id;sensor_type;location;lat;lon;timestamp;pressure;altitude;pressure_sealevel;temperature;humidity
11712;BME280;5912;51.034;6.984;2024-01-25T00:00:16;56558.66;;;-142.13;65.24
11712;BME280;5912;51.034;6.984;2024-01-25T00:02:41;56560.66;;;-142.13;64.80
11712;BME280;5912;51.034;6.984;2024-01-25T00:05:07;56602.72;;;-142.13;64.91
11712;BME280;5912;51.034;6.984;2024-01-25T00:07:32;56580.69;;;-142.13;64.56
11712;BME280;5912;51.034;6.984;2024-01-25T00:09:58;56580.69;;;-142.13;65.08
11712;BME280;5912;51.034;6.984;2024-01-25T00:12:23;56550.63;;;-142.13;64.92
11712;BME280;5912;51.034;6.984;2024-01-25T00:14:48;56584.69;;;-142.13;64.92
11712;BME280;5912;51.034;6.984;2024-01-25T00:17:14;56578.69;;;-142.13;65.52
11712;BME280;5912;51.034;6.984;2024-01-25T00:19:39;56588.69;;;-142.13;65.21
11712;BME280;5912;51.034;6.984;2024-01-25T00:22:06;56560.66;;;-142.13;65.57
11712;BME280;5912;51.034;6.984;2024-01-25T00:24:32;56562.66;;;-142.13;65.32
11712;BME280;5912;51.034;6.984;2024-01-25T00:26:58;56560.66;;;-142.13;65.13
11712;BME280;5912;51.034;6.984;2024-01-25T00:29:23;56554.66;;;-142.13;65.49
11712;BME280;5912;51.034;6.984;2024-01-25T00:31:49;56594.72;;;-142.13;65.41
11712;BME280;5912;51.034;6.984;2024-01-25T00:34:14;56600.72;;;-142.13;65.78
11712;BME280;5912;51.034;6.984;2024-01-25T00:36:40;56576.69;;;-142.13;65.65
11712;BME280;5912;51.034;6.984;2024-01-25T00:39:05;56572.69;;;-142.13;65.68
11712;BME280;5912;51.034;6.984;2024-01-25T00:41:32;56586.69;;;-142.13;65.48
11712;BME280;5912;51.034;6.984;2024-01-25T00:43:58;56544.63;;;-142.13;65.32
11712;BME280;5912;51.034;6.984;2024-01-25T00:46:24;56588.69;;;-142.13;65.23
11712;BME280;5912;51.034;6.984;2024-01-25T00:48:49;56582.69;;;-142.13;65.34
11712;BME280;5912;51.034;6.984;2024-01-25T00:51:15;56576.69;;;-142.13;65.47
11712;BME280;5912;51.034;6.984;2024-01-25T00:53:46;56616.75;;;-142.13;65.25
11712;BME280;5912;51.034;6.984;2024-01-25T00:56:11;56588.69;;;-142.13;65.74
11712;BME280;5912;51.034;6.984;2024-01-25T00:58:37;56580.69;;;-142.13;65.58
11712;BME280;5912;51.034;6.984;2024-01-25T01:01:03;56584.69;;;-142.13;65.53
11712;BME280;5912;51.034;6.984;2024-01-25T01:03:28;56582.69;;;-142.13;66.03
11712;BME280;5912;51.034;6.984;2024-01-25T01:05:54;56604.72;;;-142.13;65.86
11712;BME280;5912;51.034;6.984;2024-01-25T01:08:19;56556.66;;;-142.13;65.66
11712;BME280;5912;51.034;6.984;2024-01-25T01:10:45;56560.66;;;-142.13;66.05
11712;BME280;5912;51.034;6.984;2024-01-25T01:13:10;56600.72;;;-142.13;65.98
11712;BME280;5912;51.034;6.984;2024-01-25T01:15:35;56628.78;;;-142.13;65.99
11712;BME280;5912;51.034;6.984;2024-01-25T01:18:01;56554.66;;;-142.13;66.02
11712;BME280;5912;51.034;6.984;2024-01-25T01:20:26;56580.69;;;-142.13;66.24
11712;BME280;5912;51.034;6.984;2024-01-25T01:22:51;56604.72;;;-142.13;66.21
11712;BME280;5912;51.034;6.984;2024-01-25T01:25:17;56582.69;;;-142.13;66.14
11712;BME280;5912;51.034;6.984;2024-01-25T01:27:42;56564.66;;;-142.13;66.05
11712;BME280;5912;51.034;6.984;2024-01-25T01:30:08;56604.72;;;-142.13;66.94
11712;BME280;5912;51.034;6.984;2024-01-25T01:32:34;56522.59;;;-142.13;66.71
11712;BME280;5912;51.034;6.984;2024-01-25T01:34:59;56612.75;;;-142.13;66.62
11712;BME280;5912;51.034;6.984;2024-01-25T01:37:24;56576.69;;;-142.13;66.80
11712;BME280;5912;51.034;6.984;2024-01-25T01:39:50;56594.72;;;-142.13;67.47
11712;BME280;5912;51.034;6.984;2024-01-25T01:42:16;56656.81;;;-142.13;67.25
11712;BME280;5912;51.034;6.984;2024-01-25T01:44:41;56612.75;;;-142.13;67.23
11712;BME280;5912;51.034;6.984;2024-01-25T01:47:06;56576.69;;;-142.13;67.44
11712;BME280;5912;51.034;6.984;2024-01-25T01:49:32;56590.72;;;-142.13;67.18
11712;BME280;5912;51.034;6.984;2024-01-25T01:51:58;56616.75;;;-142.13;67.70
11712;BME280;5912;51.034;6.984;2024-01-25T01:54:24;56604.72;;;-142.13;68.07
11712;BME280;5912;51.034;6.984;2024-01-25T01:56:50;56608.75;;;-142.13;68.11
11712;BME280;5912;51.034;6.984;2024-01-25T01:59:16;56606.75;;;-142.13;68.27
11712;BME280;5912;51.034;6.984;2024-01-25T02:01:41;56616.75;;;-142.13;67.98
11712;BME280;5912;51.034;6.984;2024-01-25T02:04:07;56618.75;;;-142.13;68.26
11712;BME280;5912;51.034;6.984;2024-01-25T02:06:33;56616.75;;;-142.13;68.60
11712;BME280;5912;51.034;6.984;2024-01-25T02:08:58;56560.66;;;-142.13;68.51
11712;BME280;5912;51.034;6.984;2024-01-25T02:11:27;56620.75;;;-142.13;68.59
11712;BME280;5912;51.034;6.984;2024-01-25T02:13:52;56628.78;;;-142.13;68.42
11712;BME280;5912;51.034;6.984;2024-01-25T02:16:18;56594.72;;;-142.13;68.83
11712;BME280;5912;51.034;6.984;2024-01-25T02:18:45;56638.78;;;-142.13;69.05
11712;BME280;5912;51.034;6.984;2024-01-25T02:21:10;56622.75;;;-142.13;69.65
11712;BME280;5912;51.034;6.984;2024-01-25T02:23:35;56640.78;;;-142.13;69.61
11712;BME280;5912;51.034;6.984;2024-01-25T02:26:01;56584.69;;;-142.13;69.76
11712;BME280;5912;51.034;6.984;2024-01-25T02:28:26;56630.78;;;-142.13;69.38
11712;BME280;5912;51.034;6.984;2024-01-25T02:30:51;56622.75;;;-142.13;69.30
11712;BME280;5912;51.034;6.984;2024-01-25T02:33:17;56628.78;;;-142.13;69.28
11712;BME280;5912;51.034;6.984;2024-01-25T02:35:42;56628.78;;;-142.13;69.38
11712;BME280;5912;51.034;6.984;2024-01-25T02:38:07;56614.75;;;-142.13;68.96
11712;BME280;5912;51.034;6.984;2024-01-25T02:40:33;56594.72;;;-142.13;68.92
11712;BME280;5912;51.034;6.984;2024-01-25T02:42:58;56642.78;;;-142.13;69.20
11712;BME280;5912;51.034;6.984;2024-01-25T02:45:23;56612.75;;;-142.13;68.58
11712;BME280;5912;51.034;6.984;2024-01-25T02:47:49;56594.72;;;-142.13;68.40
11712;BME280;5912;51.034;6.984;2024-01-25T02:50:15;56578.69;;;-142.13;68.83
11712;BME280;5912;51.034;6.984;2024-01-25T02:52:40;56578.69;;;-142.13;68.69
11712;BME280;5912;51.034;6.984;2024-01-25T02:55:06;56610.75;;;-142.13;68.63
11712;BME280;5912;51.034;6.984;2024-01-25T02:57:31;56604.72;;;-142.13;68.38
11712;BME280;5912;51.034;6.984;2024-01-25T02:59:57;56582.69;;;-142.13;68.61
11712;BME280;5912;51.034;6.984;2024-01-25T03:02:22;56588.69;;;-142.13;68.71
11712;BME280;5912;51.034;6.984;2024-01-25T03:04:47;56592.72;;;-142.13;68.36
11712;BME280;5912;51.034;6.984;2024-01-25T03:07:13;56588.69;;;-142.13;68.65
11712;BME280;5912;51.034;6.984;2024-01-25T03:09:38;56594.72;;;-142.13;68.34
11712;BME280;5912;51.034;6.984;2024-01-25T03:12:04;56596.72;;;-142.13;68.80
11712;BME280;5912;51.034;6.984;2024-01-25T03:14:30;56598.72;;;-142.13;68.43
11712;BME280;5912;51.034;6.984;2024-01-25T03:16:55;56594.72;;;-142.13;68.12
11712;BME280;5912;51.034;6.984;2024-01-25T03:19:25;56610.75;;;-142.13;68.67
11712;BME280;5912;51.034;6.984;2024-01-25T03:21:51;56584.69;;;-142.13;68.13
11712;BME280;5912;51.034;6.984;2024-01-25T03:24:16;56602.72;;;-142.13;68.66
11712;BME280;5912;51.034;6.984;2024-01-25T03:26:41;56620.75;;;-142.13;69.08
11712;BME280;5912;51.034;6.984;2024-01-25T03:29:07;56616.75;;;-142.13;68.54
11712;BME280;5912;51.034;6.984;2024-01-25T03:31:32;56602.72;;;-142.13;68.79
11712;BME280;5912;51.034;6.984;2024-01-25T03:33:58;56576.69;;;-142.13;68.65
11712;BME280;5912;51.034;6.984;2024-01-25T03:36:23;56662.81;;;-142.13;68.68
11712;BME280;5912;51.034;6.984;2024-01-25T03:38:48;56626.78;;;-142.13;68.69
11712;BME280;5912;51.034;6.984;2024-01-25T03:41:14;56604.72;;;-142.13;69.14
11712;BME280;5912;51.034;6.984;2024-01-25T03:43:39;56612.75;;;-142.13;69.69
11712;BME280;5912;51.034;6.984;2024-01-25T03:46:04;56624.75;;;-142.13;69.67
11712;BME280;5912;51.034;6.984;2024-01-25T03:48:30;56636.78;;;-142.13;69.61
11712;BME280;5912;51.034;6.984;2024-01-25T03:50:56;56608.75;;;-142.13;69.99
11712;BME280;5912;51.034;6.984;2024-01-25T03:53:24;56628.78;;;-142.13;69.78
11712;BME280;5912;51.034;6.984;2024-01-25T03:55:49;56624.75;;;-142.13;70.00
11712;BME280;5912;51.034;6.984;2024-01-25T03:58:17;56614.75;;;-142.13;70.00
11712;BME280;5912;51.034;6.984;2024-01-25T04:00:43;56616.75;;;-142.13;70.88
11712;BME280;5912;51.034;6.984;2024-01-25T04:03:09;56638.78;;;-142.13;70.51
11712;BME280;5912;51.034;6.984;2024-01-25T04:05:35;56620.75;;;-142.13;70.81
11712;BME280;5912;51.034;6.984;2024-01-25T04:08:00;56630.78;;;-142.13;70.55
11712;BME280;5912;51.034;6.984;2024-01-25T04:10:25;56596.72;;;-142.13;71.13
11712;BME280;5912;51.034;6.984;2024-01-25T04:12:51;56628.78;;;-142.13;71.20
11712;BME280;5912;51.034;6.984;2024-01-25T04:15:16;56638.78;;;-142.13;70.82
11712;BME280;5912;51.034;6.984;2024-01-25T04:17:41;56640.78;;;-142.13;70.90
11712;BME280;5912;51.034;6.984;2024-01-25T04:20:07;56636.78;;;-142.13;71.00
11712;BME280;5912;51.034;6.984;2024-01-25T04:22:32;56624.75;;;-142.13;71.03
11712;BME280;5912;51.034;6.984;2024-01-25T04:24:58;56652.81;;;-142.13;71.08
11712;BME280;5912;51.034;6.984;2024-01-25T04:27:23;56632.78;;;-142.13;70.74
11712;BME280;5912;51.034;6.984;2024-01-25T04:29:48;56618.75;;;-142.13;70.88
11712;BME280;5912;51.034;6.984;2024-01-25T04:32:13;56632.78;;;-142.13;71.21
11712;BME280;5912;51.034;6.984;2024-01-25T04:34:39;56638.78;;;-142.13;71.19
11712;BME280;5912;51.034;6.984;2024-01-25T04:37:04;56644.81;;;-142.13;71.49
11712;BME280;5912;51.034;6.984;2024-01-25T04:39:29;56624.75;;;-142.13;71.14
11712;BME280;5912;51.034;6.984;2024-01-25T04:41:54;56610.75;;;-142.13;71.34
11712;BME280;5912;51.034;6.984;2024-01-25T04:44:20;56656.81;;;-142.13;71.51
11712;BME280;5912;51.034;6.984;2024-01-25T04:46:45;56644.81;;;-142.13;71.50
11712;BME280;5912;51.034;6.984;2024-01-25T04:49:11;56640.78;;;-142.13;71.75
11712;BME280;5912;51.034;6.984;2024-01-25T04:51:36;56628.78;;;-142.13;71.80
11712;BME280;5912;51.034;6.984;2024-01-25T04:54:01;56614.75;;;-142.13;71.96
11712;BME280;5912;51.034;6.984;2024-01-25T04:56:27;56644.81;;;-142.13;72.32
11712;BME280;5912;51.034;6.984;2024-01-25T04:58:53;56650.81;;;-142.13;71.79
11712;BME280;5912;51.034;6.984;2024-01-25T05:01:18;56640.78;;;-142.13;72.12
11712;BME280;5912;51.034;6.984;2024-01-25T05:03:43;56636.78;;;-142.13;72.28
11712;BME280;5912;51.034;6.984;2024-01-25T05:06:09;56638.78;;;-142.13;72.47
11712;BME280;5912;51.034;6.984;2024-01-25T05:08:34;56652.81;;;-142.13;72.29
11712;BME280;5912;51.034;6.984;2024-01-25T05:10:59;56664.84;;;-142.13;72.15
11712;BME280;5912;51.034;6.984;2024-01-25T05:13:25;56664.84;;;-142.13;72.30
11712;BME280;5912;51.034;6.984;2024-01-25T05:15:50;56654.81;;;-142.13;72.15
11712;BME280;5912;51.034;6.984;2024-01-25T05:18:16;56662.81;;;-142.13;71.96
11712;BME280;5912;51.034;6.984;2024-01-25T05:20:41;56722.94;;;-142.13;72.08
11712;BME280;5912;51.034;6.984;2024-01-25T05:23:06;56652.81;;;-142.13;72.33
11712;BME280;5912;51.034;6.984;2024-01-25T05:25:32;56680.84;;;-142.13;72.34
11712;BME280;5912;51.034;6.984;2024-01-25T05:27:57;56644.81;;;-142.13;72.71
11712;BME280;5912;51.034;6.984;2024-01-25T05:30:24;56666.84;;;-142.13;72.58
11712;BME280;5912;51.034;6.984;2024-01-25T05:32:49;56674.84;;;-142.13;72.47
11712;BME280;5912;51.034;6.984;2024-01-25T05:35:16;56678.84;;;-142.13;72.77
11712;BME280;5912;51.034;6.984;2024-01-25T05:37:42;56652.81;;;-142.13;72.73
11712;BME280;5912;51.034;6.984;2024-01-25T05:40:08;56666.84;;;-142.13;73.05
11712;BME280;5912;51.034;6.984;2024-01-25T05:42:35;56666.84;;;-142.13;73.27
11712;BME280;5912;51.034;6.984;2024-01-25T05:45:01;56686.88;;;-142.13;73.08
11712;BME280;5912;51.034;6.984;2024-01-25T05:47:26;56682.88;;;-142.13;73.39
11712;BME280;5912;51.034;6.984;2024-01-25T05:49:52;56688.88;;;-142.13;73.54
11712;BME280;5912;51.034;6.984;2024-01-25T05:52:17;56652.81;;;-142.13;73.77
11712;BME280;5912;51.034;6.984;2024-01-25T05:54:42;56650.81;;;-142.13;73.64
11712;BME280;5912;51.034;6.984;2024-01-25T05:57:09;56686.88;;;-142.13;73.40
11712;BME280;5912;51.034;6.984;2024-01-25T05:59:34;56680.84;;;-142.13;73.20
11712;BME280;5912;51.034;6.984;2024-01-25T06:01:59;56706.91;;;-142.13;73.76
11712;BME280;5912;51.034;6.984;2024-01-25T06:04:25;56670.84;;;-142.13;73.57
11712;BME280;5912;51.034;6.984;2024-01-25T06:06:50;56668.84;;;-142.13;73.53
11712;BME280;5912;51.034;6.984;2024-01-25T06:09:15;56686.88;;;-142.13;73.86
11712;BME280;5912;51.034;6.984;2024-01-25T06:11:41;56690.88;;;-142.13;73.50
11712;BME280;5912;51.034;6.984;2024-01-25T06:14:06;56688.88;;;-142.13;73.46
11712;BME280;5912;51.034;6.984;2024-01-25T06:16:32;56692.88;;;-142.13;73.79
11712;BME280;5912;51.034;6.984;2024-01-25T06:18:57;56690.88;;;-142.13;73.47
11712;BME280;5912;51.034;6.984;2024-01-25T06:21:23;56662.81;;;-142.13;74.00
11712;BME280;5912;51.034;6.984;2024-01-25T06:23:49;56662.81;;;-142.13;73.60
11712;BME280;5912;51.034;6.984;2024-01-25T06:26:14;56666.84;;;-142.13;73.80
11712;BME280;5912;51.034;6.984;2024-01-25T06:28:39;56676.84;;;-142.13;73.34
11712;BME280;5912;51.034;6.984;2024-01-25T06:31:06;56670.84;;;-142.13;73.77
11712;BME280;5912;51.034;6.984;2024-01-25T06:33:31;56684.88;;;-142.13;73.81
11712;BME280;5912;51.034;6.984;2024-01-25T06:35:57;56692.88;;;-142.13;74.27
11712;BME280;5912;51.034;6.984;2024-01-25T06:38:22;56700.91;;;-142.13;74.69
11712;BME280;5912;51.034;6.984;2024-01-25T06:40:48;56694.88;;;-142.13;74.25
11712;BME280;5912;51.034;6.984;2024-01-25T06:43:13;56680.84;;;-142.13;74.18
11712;BME280;5912;51.034;6.984;2024-01-25T06:45:38;56680.84;;;-142.13;74.38
11712;BME280;5912;51.034;6.984;2024-01-25T06:48:06;56710.91;;;-142.13;74.11
11712;BME280;5912;51.034;6.984;2024-01-25T06:50:31;56666.84;;;-142.13;74.44
11712;BME280;5912;51.034;6.984;2024-01-25T06:52:57;56688.88;;;-142.13;74.80
11712;BME280;5912;51.034;6.984;2024-01-25T06:55:28;56704.91;;;-142.13;74.89
11712;BME280;5912;51.034;6.984;2024-01-25T06:57:53;56696.88;;;-142.13;74.60
11712;BME280;5912;51.034;6.984;2024-01-25T07:00:19;56706.91;;;-142.13;74.44
11712;BME280;5912;51.034;6.984;2024-01-25T07:02:46;56694.88;;;-142.13;75.03
11712;BME280;5912;51.034;6.984;2024-01-25T07:05:11;56700.91;;;-142.13;74.85
11712;BME280;5912;51.034;6.984;2024-01-25T07:07:36;56692.88;;;-142.13;74.86
11712;BME280;5912;51.034;6.984;2024-01-25T07:10:06;56714.91;;;-142.13;74.35
11712;BME280;5912;51.034;6.984;2024-01-25T07:12:32;56698.88;;;-142.13;74.92
11712;BME280;5912;51.034;6.984;2024-01-25T07:14:57;56682.88;;;-142.13;74.96
11712;BME280;5912;51.034;6.984;2024-01-25T07:17:22;56692.88;;;-142.13;74.72
11712;BME280;5912;51.034;6.984;2024-01-25T07:19:47;56690.88;;;-142.13;74.97
11712;BME280;5912;51.034;6.984;2024-01-25T07:22:13;56680.84;;;-142.13;75.12
11712;BME280;5912;51.034;6.984;2024-01-25T07:24:40;56710.91;;;-142.13;74.95
11712;BME280;5912;51.034;6.984;2024-01-25T07:27:05;56704.91;;;-142.13;74.77
11712;BME280;5912;51.034;6.984;2024-01-25T07:29:31;56712.91;;;-142.13;74.90
11712;BME280;5912;51.034;6.984;2024-01-25T07:31:56;56718.91;;;-142.13;74.87
11712;BME280;5912;51.034;6.984;2024-01-25T07:34:21;56684.88;;;-142.13;75.32
11712;BME280;5912;51.034;6.984;2024-01-25T07:36:46;56708.91;;;-142.13;75.51
11712;BME280;5912;51.034;6.984;2024-01-25T07:42:21;56708.91;;;-142.13;75.00
11712;BME280;5912;51.034;6.984;2024-01-25T07:48:08;56688.88;;;-142.13;75.02
11712;BME280;5912;51.034;6.984;2024-01-25T07:50:33;56664.84;;;-142.13;75.47
11712;BME280;5912;51.034;6.984;2024-01-25T07:52:58;56682.88;;;-142.13;75.34
11712;BME280;5912;51.034;6.984;2024-01-25T07:55:26;56670.84;;;-142.13;75.23
11712;BME280;5912;51.034;6.984;2024-01-25T07:57:52;56684.88;;;-142.13;75.15
11712;BME280;5912;51.034;6.984;2024-01-25T08:00:17;56688.88;;;-142.13;75.02
11712;BME280;5912;51.034;6.984;2024-01-25T08:02:42;56678.84;;;-142.13;74.90
11712;BME280;5912;51.034;6.984;2024-01-25T08:05:10;56680.84;;;-142.13;74.99
11712;BME280;5912;51.034;6.984;2024-01-25T08:07:36;56668.84;;;-142.13;74.97
11712;BME280;5912;51.034;6.984;2024-01-25T08:10:03;56696.88;;;-142.13;75.12
11712;BME280;5912;51.034;6.984;2024-01-25T08:12:29;56652.81;;;-142.13;74.95
11712;BME280;5912;51.034;6.984;2024-01-25T08:14:54;56688.88;;;-142.13;74.86
11712;BME280;5912;51.034;6.984;2024-01-25T08:17:20;56696.88;;;-142.13;74.90
11712;BME280;5912;51.034;6.984;2024-01-25T08:19:45;56668.84;;;-142.13;74.47
11712;BME280;5912;51.034;6.984;2024-01-25T08:22:11;56680.84;;;-142.13;74.29
11712;BME280;5912;51.034;6.984;2024-01-25T08:24:38;56660.81;;;-142.13;74.08
11712;BME280;5912;51.034;6.984;2024-01-25T08:27:04;56668.84;;;-142.13;74.06
11712;BME280;5912;51.034;6.984;2024-01-25T08:29:30;56698.88;;;-142.13;73.92
11712;BME280;5912;51.034;6.984;2024-01-25T08:31:55;56672.84;;;-142.13;73.82
11712;BME280;5912;51.034;6.984;2024-01-25T08:34:20;56646.81;;;-142.13;73.59
11712;BME280;5912;51.034;6.984;2024-01-25T08:36:46;56620.75;;;-142.13;73.34
11712;BME280;5912;51.034;6.984;2024-01-25T08:39:11;56662.81;;;-142.13;73.26
11712;BME280;5912;51.034;6.984;2024-01-25T08:41:37;56752.97;;;-142.13;72.87
11712;BME280;5912;51.034;6.984;2024-01-25T08:44:03;56636.78;;;-142.13;72.48
11712;BME280;5912;51.034;6.984;2024-01-25T08:46:28;56630.78;;;-142.13;72.56
11712;BME280;5912;51.034;6.984;2024-01-25T08:48:53;56656.81;;;-142.13;71.97
11712;BME280;5912;51.034;6.984;2024-01-25T08:51:19;56632.78;;;-142.13;71.51
11712;BME280;5912;51.034;6.984;2024-01-25T08:53:44;56616.75;;;-142.13;71.21
11712;BME280;5912;51.034;6.984;2024-01-25T08:56:33;56594.72;;;-142.13;71.14
11712;BME280;5912;51.034;6.984;2024-01-25T08:58:59;56604.72;;;-142.13;70.45
11712;BME280;5912;51.034;6.984;2024-01-25T09:01:25;56636.78;;;-142.13;70.40
11712;BME280;5912;51.034;6.984;2024-01-25T09:03:50;56606.75;;;-142.13;69.50
11712;BME280;5912;51.034;6.984;2024-01-25T09:06:15;56626.78;;;-142.13;69.68
11712;BME280;5912;51.034;6.984;2024-01-25T09:08:41;56602.72;;;-142.13;69.22
11712;BME280;5912;51.034;6.984;2024-01-25T09:11:06;56620.75;;;-142.13;69.14
11712;BME280;5912;51.034;6.984;2024-01-25T09:13:32;56596.72;;;-142.13;68.92
11712;BME280;5912;51.034;6.984;2024-01-25T09:15:57;56580.69;;;-142.13;68.41
11712;BME280;5912;51.034;6.984;2024-01-25T09:18:22;56634.78;;;-142.13;68.45
11712;BME280;5912;51.034;6.984;2024-01-25T09:20:48;56628.78;;;-142.13;67.99
11712;BME280;5912;51.034;6.984;2024-01-25T09:23:16;56610.75;;;-142.13;68.00
11712;BME280;5912;51.034;6.984;2024-01-25T09:25:42;56596.72;;;-142.13;68.13
11712;BME280;5912;51.034;6.984;2024-01-25T09:28:08;56588.69;;;-142.13;67.50
11712;BME280;5912;51.034;6.984;2024-01-25T09:30:33;56588.69;;;-142.13;67.16
11712;BME280;5912;51.034;6.984;2024-01-25T09:32:58;56540.63;;;-142.13;67.32
11712;BME280;5912;51.034;6.984;2024-01-25T09:35:24;56568.66;;;-142.13;67.34
11712;BME280;5912;51.034;6.984;2024-01-25T09:37:49;56590.72;;;-142.13;67.36
11712;BME280;5912;51.034;6.984;2024-01-25T09:40:18;56582.69;;;-142.13;66.88
11712;BME280;5912;51.034;6.984;2024-01-25T09:42:46;56560.66;;;-142.13;66.43
11712;BME280;5912;51.034;6.984;2024-01-25T09:45:16;56548.63;;;-142.13;65.73
11712;BME280;5912;51.034;6.984;2024-01-25T09:47:42;56560.66;;;-142.13;65.72
11712;BME280;5912;51.034;6.984;2024-01-25T09:50:08;56552.66;;;-142.13;65.39
11712;BME280;5912;51.034;6.984;2024-01-25T09:52:34;56576.69;;;-142.13;65.88
11712;BME280;5912;51.034;6.984;2024-01-25T09:55:01;56542.63;;;-142.13;65.38
11712;BME280;5912;51.034;6.984;2024-01-25T09:57:28;56520.59;;;-142.13;64.37
11712;BME280;5912;51.034;6.984;2024-01-25T09:59:55;56544.63;;;-142.13;64.72
11712;BME280;5912;51.034;6.984;2024-01-25T10:02:21;56558.66;;;-142.13;64.59
11712;BME280;5912;51.034;6.984;2024-01-25T10:04:50;56556.66;;;-142.13;64.89
11712;BME280;5912;51.034;6.984;2024-01-25T10:07:39;56532.63;;;-142.13;64.59
11712;BME280;5912;51.034;6.984;2024-01-25T10:10:03;56528.59;;;-142.13;64.11
11712;BME280;5912;51.034;6.984;2024-01-25T10:12:30;56526.59;;;-142.13;64.03
11712;BME280;5912;51.034;6.984;2024-01-25T10:14:56;56536.63;;;-142.13;63.47
11712;BME280;5912;51.034;6.984;2024-01-25T10:17:21;56516.59;;;-142.13;62.62
11712;BME280;5912;51.034;6.984;2024-01-25T10:19:46;56520.59;;;-142.13;62.63
11712;BME280;5912;51.034;6.984;2024-01-25T10:22:12;56522.59;;;-142.13;62.12
11712;BME280;5912;51.034;6.984;2024-01-25T10:24:38;56492.53;;;-142.13;62.18
11712;BME280;5912;51.034;6.984;2024-01-25T10:27:04;56544.63;;;-142.13;62.20
11712;BME280;5912;51.034;6.984;2024-01-25T10:29:29;56492.53;;;-142.13;60.82
11712;BME280;5912;51.034;6.984;2024-01-25T10:31:54;56508.56;;;-142.13;61.57
11712;BME280;5912;51.034;6.984;2024-01-25T10:34:20;56480.53;;;-142.13;60.45
11712;BME280;5912;51.034;6.984;2024-01-25T10:36:46;56480.53;;;-142.13;58.76
11712;BME280;5912;51.034;6.984;2024-01-25T10:39:12;56478.53;;;-142.13;59.33
11712;BME280;5912;51.034;6.984;2024-01-25T10:41:40;56462.50;;;-142.13;57.63
11712;BME280;5912;51.034;6.984;2024-01-25T10:44:06;56492.53;;;-142.13;56.15
11712;BME280;5912;51.034;6.984;2024-01-25T10:46:32;56480.53;;;-142.13;57.19
11712;BME280;5912;51.034;6.984;2024-01-25T10:48:58;56516.59;;;-142.13;56.71
11712;BME280;5912;51.034;6.984;2024-01-25T10:51:27;56468.50;;;-142.13;55.95
11712;BME280;5912;51.034;6.984;2024-01-25T10:53:53;56480.53;;;-142.13;56.84
11712;BME280;5912;51.034;6.984;2024-01-25T10:56:20;56458.50;;;-142.13;56.05
11712;BME280;5912;51.034;6.984;2024-01-25T10:58:46;56486.53;;;-142.13;56.26
11712;BME280;5912;51.034;6.984;2024-01-25T11:01:11;56506.56;;;-142.13;57.15
11712;BME280;5912;51.034;6.984;2024-01-25T11:03:36;56432.44;;;-142.13;57.10
11712;BME280;5912;51.034;6.984;2024-01-25T11:06:08;56460.50;;;-142.13;55.14
11712;BME280;5912;51.034;6.984;2024-01-25T11:08:43;56458.50;;;-142.13;55.20
11712;BME280;5912;51.034;6.984;2024-01-25T11:11:11;56424.44;;;-142.13;53.35
11712;BME280;5912;51.034;6.984;2024-01-25T11:13:44;56374.34;;;-142.13;52.56
11712;BME280;5912;51.034;6.984;2024-01-25T11:16:16;56434.44;;;-142.13;51.04
11712;BME280;5912;51.034;6.984;2024-01-25T11:18:54;56428.44;;;-142.13;52.44
11712;BME280;5912;51.034;6.984;2024-01-25T11:21:44;56466.50;;;-142.13;52.11
11712;BME280;5912;51.034;6.984;2024-01-25T11:24:13;56416.44;;;-142.13;51.31
11712;BME280;5912;51.034;6.984;2024-01-25T11:26:39;56454.47;;;-142.13;51.40
11712;BME280;5912;51.034;6.984;2024-01-25T11:29:05;56428.44;;;-142.13;50.63
11712;BME280;5912;51.034;6.984;2024-01-25T11:31:31;56446.47;;;-142.13;50.24
11712;BME280;5912;51.034;6.984;2024-01-25T11:33:57;56442.47;;;-142.13;48.76
11712;BME280;5912;51.034;6.984;2024-01-25T11:36:24;56412.41;;;-142.13;49.86
11712;BME280;5912;51.034;6.984;2024-01-25T11:38:50;56432.44;;;-142.13;49.91
11712;BME280;5912;51.034;6.984;2024-01-25T11:41:15;56436.47;;;-142.13;47.74
11712;BME280;5912;51.034;6.984;2024-01-25T11:43:40;56426.44;;;-142.13;46.98
11712;BME280;5912;51.034;6.984;2024-01-25T11:46:06;56416.44;;;-142.13;48.40
11712;BME280;5912;51.034;6.984;2024-01-25T11:48:31;56420.44;;;-142.13;48.31
11712;BME280;5912;51.034;6.984;2024-01-25T11:50:59;56428.44;;;-142.13;48.59
11712;BME280;5912;51.034;6.984;2024-01-25T11:53:25;56420.44;;;-142.13;48.33
11712;BME280;5912;51.034;6.984;2024-01-25T11:55:50;56452.47;;;-142.13;48.55
11712;BME280;5912;51.034;6.984;2024-01-25T11:58:16;56420.44;;;-142.13;48.34
11712;BME280;5912;51.034;6.984;2024-01-25T12:00:41;56400.41;;;-142.13;47.40
11712;BME280;5912;51.034;6.984;2024-01-25T12:03:07;56424.44;;;-142.13;45.17
11712;BME280;5912;51.034;6.984;2024-01-25T12:05:33;56426.44;;;-142.13;44.76
11712;BME280;5912;51.034;6.984;2024-01-25T12:07:59;56414.41;;;-142.13;44.41
11712;BME280;5912;51.034;6.984;2024-01-25T12:10:24;56404.41;;;-142.13;45.47
11712;BME280;5912;51.034;6.984;2024-01-25T12:12:51;56408.41;;;-142.13;45.97
11712;BME280;5912;51.034;6.984;2024-01-25T12:15:16;56406.41;;;-142.13;45.48
11712;BME280;5912;51.034;6.984;2024-01-25T12:17:42;56380.38;;;-142.13;45.70
11712;BME280;5912;51.034;6.984;2024-01-25T12:20:08;56432.44;;;-142.13;44.76
11712;BME280;5912;51.034;6.984;2024-01-25T12:22:39;56408.41;;;-142.13;43.96
11712;BME280;5912;51.034;6.984;2024-01-25T12:25:08;56448.47;;;-142.13;43.90
11712;BME280;5912;51.034;6.984;2024-01-25T12:27:39;56428.44;;;-142.13;44.20
11712;BME280;5912;51.034;6.984;2024-01-25T12:30:24;56424.44;;;-142.13;44.31
11712;BME280;5912;51.034;6.984;2024-01-25T12:32:49;56420.44;;;-142.13;44.95
11712;BME280;5912;51.034;6.984;2024-01-25T12:35:14;56424.44;;;-142.13;45.19
11712;BME280;5912;51.034;6.984;2024-01-25T12:37:40;56420.44;;;-142.13;44.66
11712;BME280;5912;51.034;6.984;2024-01-25T12:40:05;56444.47;;;-142.13;44.99
11712;BME280;5912;51.034;6.984;2024-01-25T12:42:31;56460.50;;;-142.13;45.91
11712;BME280;5912;51.034;6.984;2024-01-25T12:44:56;56418.44;;;-142.13;45.72
11712;BME280;5912;51.034;6.984;2024-01-25T12:47:22;56414.41;;;-142.13;45.11
11712;BME280;5912;51.034;6.984;2024-01-25T12:49:47;56436.47;;;-142.13;45.33